Time;durP1;ratioP1;P1;durP2;ratioP2;P2;SDS_P1;SDS_P2;PMS_P1;PMS_P2;Temp;Humidity;BMP_temperature;BMP_pressure;BME280_temperature;BME280_humidity;BME280_pressure;Samples;Min_cycle;Max_cycle;Signal;HPM_P1;HPM_P2
2022/07/04 00:01:49;;;;;;;5.78;1.77;;;;;;;20.12;58.19;95887.44;5013061;28;20198;-77
2022/07/04 00:04:15;;;;;;;3.63;1.70;;;;;;;20.06;58.86;95889.88;5012228;28;20176;-77
2022/07/04 00:06:40;;;;;;;3.08;1.50;;;;;;;20.09;58.56;95888.66;4994960;28;20191;-77
2022/07/04 00:09:05;;;;;;;1.52;1.42;;;;;;;20.09;58.78;95884.22;5009551;28;20635;-77
2022/07/04 00:11:31;;;;;;;2.25;1.60;;;;;;;20.09;58.46;95886.84;4992592;28;20318;-77
2022/07/04 00:13:56;;;;;;;3.03;1.60;;;;;;;19.94;58.97;95880.09;4993345;28;20339;-77
2022/07/04 00:16:21;;;;;;;3.05;1.73;;;;;;;19.88;59.19;95876.44;5009032;28;20636;-76
2022/07/04 00:18:46;;;;;;;2.47;1.40;;;;;;;19.95;58.75;95879.91;5009084;28;20683;-76
2022/07/04 00:21:12;;;;;;;2.63;1.65;;;;;;;19.91;58.69;95869.97;5009044;28;20200;-76
2022/07/04 00:23:37;;;;;;;2.83;1.65;;;;;;;19.80;59.76;95874.78;4992261;28;20191;-77
2022/07/04 00:26:02;;;;;;;3.00;1.50;;;;;;;19.80;59.55;95884.53;4992094;28;20262;-77
2022/07/04 00:28:28;;;;;;;2.75;1.60;;;;;;;19.82;59.57;95885.13;4993929;28;20176;-76
2022/07/04 00:30:53;;;;;;;3.97;1.48;;;;;;;19.78;60.01;95882.06;4992591;28;20641;-76
2022/07/04 00:33:18;;;;;;;2.78;1.50;;;;;;;19.73;60.26;95888.94;5008719;28;20206;-76
2022/07/04 00:35:43;;;;;;;1.77;1.67;;;;;;;19.75;60.27;95886.91;4992087;28;20196;-77
2022/07/04 00:38:09;;;;;;;4.13;1.50;;;;;;;19.70;60.91;95884.03;4992323;28;20660;-77
2022/07/04 00:40:34;;;;;;;2.58;1.45;;;;;;;19.68;60.96;95886.88;4992158;28;20618;-77
2022/07/04 00:43:04;;;;;;;3.03;1.85;;;;;;;19.74;60.72;95890.56;4992366;28;20176;-77
2022/07/04 00:45:29;;;;;;;3.75;1.60;;;;;;;19.67;61.13;95892.34;4991798;28;20184;-78
2022/07/04 00:47:54;;;;;;;4.68;1.70;;;;;;;19.58;61.59;95883.00;4991725;28;20714;-77
2022/07/04 00:50:20;;;;;;;2.28;2.08;;;;;;;19.59;61.39;95881.97;4992470;28;20199;-78
2022/07/04 00:52:45;;;;;;;4.72;1.65;;;;;;;19.60;61.81;95875.69;4992715;28;20246;-76
2022/07/04 00:55:11;;;;;;;2.95;1.70;;;;;;;19.66;61.69;95881.00;4991499;28;20172;-76
2022/07/04 00:57:36;;;;;;;3.40;1.80;;;;;;;19.53;62.45;95883.56;4992203;28;20172;-76
2022/07/04 01:00:03;;;;;;;2.75;1.48;;;;;;;19.57;62.00;95882.19;4991868;28;20267;-76
2022/07/04 01:02:28;;;;;;;3.38;1.42;;;;;;;19.52;62.13;95884.53;4991670;28;20554;-76
2022/07/04 01:04:53;;;;;;;3.10;1.48;;;;;;;19.50;62.01;95879.47;5007643;28;20180;-76
2022/07/04 01:07:19;;;;;;;3.22;1.60;;;;;;;19.39;62.51;95880.03;4993725;28;20219;-77
2022/07/04 01:09:44;;;;;;;2.35;1.60;;;;;;;19.43;62.12;95872.53;4993792;28;20180;-77
2022/07/04 01:12:10;;;;;;;2.33;1.65;;;;;;;19.34;62.63;95873.69;5009176;28;20172;-77
2022/07/04 01:14:38;;;;;;;3.25;1.70;;;;;;;19.27;62.77;95875.50;4991722;28;20204;-77
2022/07/04 01:17:04;;;;;;;4.75;1.70;;;;;;;19.11;63.15;95879.25;4991950;28;20180;-77
2022/07/04 01:19:29;;;;;;;4.00;1.75;;;;;;;18.98;63.27;95877.31;4991645;28;20183;-77
2022/07/04 01:21:55;;;;;;;3.08;1.60;;;;;;;19.02;63.16;95872.50;5023993;28;20299;-77
2022/07/04 01:24:20;;;;;;;4.93;1.90;;;;;;;19.00;63.50;95871.88;5011068;28;20546;-77
2022/07/04 01:26:45;;;;;;;1.60;1.50;;;;;;;18.93;63.66;95877.91;5011422;28;20172;-77
2022/07/04 01:29:11;;;;;;;4.63;1.58;;;;;;;18.89;64.03;95875.84;5011582;28;20370;-77
2022/07/04 01:31:36;;;;;;;3.53;1.77;;;;;;;18.86;63.93;95878.88;5012571;28;20199;-77
2022/07/04 01:34:01;;;;;;;5.07;2.10;;;;;;;18.82;64.17;95885.53;4993948;28;20300;-77
2022/07/04 01:36:26;;;;;;;4.70;1.90;;;;;;;18.84;63.97;95886.13;5012779;28;20243;-77
2022/07/04 01:38:52;;;;;;;3.80;1.80;;;;;;;18.82;64.28;95885.53;4995101;28;20288;-77
2022/07/04 01:41:17;;;;;;;2.60;1.98;;;;;;;18.92;63.87;95886.81;5011541;28;20201;-77
2022/07/04 01:43:42;;;;;;;3.40;1.60;;;;;;;18.88;63.50;95888.19;5010888;28;20274;-77
2022/07/04 01:46:08;;;;;;;4.53;1.73;;;;;;;18.82;63.85;95891.59;5010945;28;20298;-77
2022/07/04 01:48:33;;;;;;;7.68;1.98;;;;;;;18.78;64.14;95892.97;5011617;28;20182;-76
2022/07/04 01:50:58;;;;;;;2.80;1.67;;;;;;;18.82;63.99;95896.84;5010525;28;20199;-77
2022/07/04 01:53:24;;;;;;;2.22;1.73;;;;;;;18.79;64.18;95894.59;4993877;28;20209;-77
2022/07/04 01:55:49;;;;;;;2.30;1.48;;;;;;;18.80;64.13;95890.94;5010013;28;20179;-77
2022/07/04 01:58:14;;;;;;;3.78;2.00;;;;;;;18.75;64.26;95892.53;5010416;28;20696;-77
2022/07/04 02:03:23;;;;;;;5.88;1.80;;;;;;;18.70;64.04;95898.34;5010665;28;20226;-77
2022/07/04 02:05:49;;;;;;;3.00;1.70;;;;;;;18.60;64.37;95901.28;5009726;28;20171;-77
2022/07/04 02:08:14;;;;;;;3.85;1.85;;;;;;;18.54;64.90;95896.75;5010366;28;20183;-77
2022/07/04 02:10:39;;;;;;;3.63;1.52;;;;;;;18.44;65.20;95898.09;4993879;28;20671;-76
2022/07/04 02:13:05;;;;;;;1.70;1.60;;;;;;;18.55;64.55;95889.69;5011412;28;20202;-76
2022/07/04 02:15:35;;;;;;;3.45;1.77;;;;;;;18.52;64.70;95895.34;5010036;28;20195;-76
2022/07/04 02:18:01;;;;;;;3.20;1.75;;;;;;;18.44;64.35;95900.72;5010420;28;20175;-77
2022/07/04 02:20:27;;;;;;;3.13;1.75;;;;;;;18.42;64.60;95895.66;5027709;28;20201;-78
2022/07/04 02:22:52;;;;;;;1.95;1.50;;;;;;;18.46;64.57;95904.78;5027069;28;20229;-78
2022/07/04 02:25:18;;;;;;;2.95;1.60;;;;;;;18.40;64.83;95908.19;5010732;28;20167;-78
2022/07/04 02:27:43;;;;;;;3.88;1.80;;;;;;;18.32;65.00;95919.63;4994477;28;20724;-78
2022/07/04 02:30:09;;;;;;;3.10;1.77;;;;;;;18.34;65.11;95917.59;5010598;28;20230;-76
2022/07/04 02:32:35;;;;;;;3.17;1.60;;;;;;;18.39;64.73;95907.38;5026664;28;20198;-76
2022/07/04 02:35:00;;;;;;;4.25;1.80;;;;;;;18.37;64.22;95919.03;5025908;28;20167;-77
2022/07/04 02:37:26;;;;;;;5.55;2.00;;;;;;;18.30;64.49;95916.38;5009928;28;20183;-77
2022/07/04 02:39:51;;;;;;;5.18;1.60;;;;;;;18.20;64.94;95928.16;5009940;28;20177;-77
2022/07/04 02:42:16;;;;;;;4.55;1.88;;;;;;;18.15;64.57;95933.19;5026139;28;20183;-77
2022/07/04 02:44:43;;;;;;;4.70;1.75;;;;;;;18.01;64.79;95934.81;5009102;28;20563;-77
2022/07/04 02:47:08;;;;;;;3.90;1.60;;;;;;;18.04;64.64;95931.84;5010262;28;20187;-77
2022/07/04 02:49:33;;;;;;;2.78;1.50;;;;;;;17.94;64.84;95921.63;5013568;28;20697;-78
2022/07/04 02:51:59;;;;;;;4.32;1.80;;;;;;;17.87;64.65;95923.34;5011037;28;20195;-76
2022/07/04 02:54:24;;;;;;;2.72;1.63;;;;;;;17.90;64.31;95927.41;5010311;28;20250;-77
2022/07/04 02:56:49;;;;;;;3.38;1.63;;;;;;;17.86;64.55;95923.53;5013192;28;20179;-77
2022/07/04 02:59:14;;;;;;;5.75;2.00;;;;;;;17.91;64.18;95927.22;5015217;28;20182;-77
2022/07/04 03:01:40;;;;;;;3.63;2.03;;;;;;;17.81;64.46;95919.63;5015177;28;20686;-76
2022/07/04 03:04:05;;;;;;;2.00;1.77;;;;;;;17.73;65.03;95921.56;5029324;28;20270;-77
2022/07/04 03:06:30;;;;;;;6.15;1.88;;;;;;;17.71;64.92;95927.00;5014858;28;20174;-77
2022/07/04 03:08:56;;;;;;;4.35;1.60;;;;;;;17.58;65.22;95926.81;5014750;28;20214;-77
2022/07/04 03:11:21;;;;;;;2.35;1.50;;;;;;;17.63;64.84;95929.69;5013616;28;20325;-77
2022/07/04 03:13:46;;;;;;;2.45;1.42;;;;;;;17.58;65.46;95929.44;5013167;28;20214;-76
2022/07/04 03:16:12;;;;;;;2.97;1.63;;;;;;;17.54;65.46;95930.78;5015044;28;20254;-77
2022/07/04 03:18:37;;;;;;;3.50;1.60;;;;;;;17.52;65.72;95930.97;5013678;28;20175;-77
2022/07/04 03:21:04;;;;;;;2.92;1.70;;;;;;;17.44;66.04;95932.84;5013373;28;20225;-77
2022/07/04 03:23:33;;;;;;;4.28;1.75;;;;;;;17.49;66.04;95930.47;5030313;28;20647;-77
2022/07/04 03:25:58;;;;;;;3.15;1.80;;;;;;;17.41;66.42;95928.78;4997049;28;20179;-77
2022/07/04 03:28:24;;;;;;;1.77;1.63;;;;;;;17.42;66.43;95937.47;5014262;28;20167;-77
2022/07/04 03:30:50;;;;;;;3.05;1.80;;;;;;;17.34;66.69;95933.13;4997285;28;20226;-76
2022/07/04 03:33:15;;;;;;;2.72;1.50;;;;;;;17.32;67.39;95939.56;5014259;28;20202;-77
2022/07/04 03:35:40;;;;;;;4.40;2.00;;;;;;;17.41;66.62;95948.97;5013794;28;20175;-77
2022/07/04 03:38:06;;;;;;;4.90;1.80;;;;;;;17.43;66.17;95941.72;5014248;28;20186;-77
2022/07/04 03:40:32;;;;;;;3.05;1.63;;;;;;;17.35;67.26;95940.00;5014989;28;20605;-77
2022/07/04 03:42:59;;;;;;;5.97;2.45;;;;;;;17.46;66.75;95946.59;4997602;28;20195;-77
2022/07/04 03:45:24;;;;;;;6.15;1.50;;;;;;;17.45;66.55;95950.22;5029591;28;20182;-77
2022/07/04 03:47:50;;;;;;;2.42;1.73;;;;;;;17.46;66.72;95942.16;5012450;28;20183;-77
2022/07/04 03:50:16;;;;;;;2.75;1.50;;;;;;;17.49;66.72;95941.81;5013478;28;20218;-77
2022/07/04 03:52:41;;;;;;;3.78;2.03;;;;;;;17.49;66.48;95951.50;5013510;28;20203;-77
2022/07/04 03:55:07;;;;;;;2.47;1.40;;;;;;;17.56;66.32;95955.03;5013252;28;20182;-77
2022/07/04 03:57:32;;;;;;;2.42;1.92;;;;;;;17.80;65.42;95957.41;4997111;28;20183;-77
2022/07/04 03:59:58;;;;;;;5.03;1.63;;;;;;;18.38;63.44;95949.63;5006733;28;20187;-77
2022/07/04 04:02:23;;;;;;;3.28;1.58;;;;;;;18.91;60.52;95958.06;5009420;28;20262;-77
2022/07/04 04:07:32;;;;;;;4.85;1.45;;;;;;;19.89;56.73;95961.59;4992126;28;20179;-77
2022/07/04 04:09:57;;;;;;;2.08;1.60;;;;;;;20.18;55.45;95968.41;4974368;28;20180;-77
2022/07/04 04:12:23;;;;;;;2.10;1.90;;;;;;;20.39;54.84;95963.00;4993362;28;20683;-77
2022/07/04 04:14:48;;;;;;;1.67;1.40;;;;;;;20.75;52.74;95970.63;4993175;28;20180;-77
2022/07/04 04:17:13;;;;;;;5.05;1.55;;;;;;;21.89;50.04;95966.94;4993920;28;20207;-78
2022/07/04 04:19:39;;;;;;;4.65;1.20;;;;;;;22.66;47.07;95971.31;4976459;28;20211;-77
2022/07/04 04:22:04;;;;;;;1.50;1.38;;;;;;;22.29;48.22;95975.56;4993374;28;20223;-77
2022/07/04 04:24:29;;;;;;;3.35;1.40;;;;;;;22.03;48.94;95982.56;5008297;28;20655;-77
2022/07/04 04:26:54;;;;;;;3.22;1.73;;;;;;;22.27;48.40;95989.03;4993974;28;20226;-78
2022/07/04 04:29:20;;;;;;;4.25;1.40;;;;;;;21.92;48.84;95992.97;4994218;28;20184;-78
2022/07/04 04:31:45;;;;;;;2.33;1.40;;;;;;;21.44;50.03;95998.50;4992588;28;20664;-78
2022/07/04 04:34:10;;;;;;;2.22;1.38;;;;;;;21.33;50.48;96007.06;4991089;28;20211;-77
2022/07/04 04:36:36;;;;;;;4.75;1.45;;;;;;;21.42;49.85;96001.38;4991519;28;20271;-78
2022/07/04 04:39:01;;;;;;;5.45;1.55;;;;;;;21.00;50.57;96007.81;4992876;28;20632;-77
2022/07/04 04:41:26;;;;;;;1.55;1.30;;;;;;;20.49;52.45;96005.66;4992948;28;20214;-78
2022/07/04 04:43:52;;;;;;;3.95;1.75;;;;;;;19.94;54.08;96011.88;4992494;28;20703;-78
2022/07/04 04:46:17;;;;;;;4.00;1.58;;;;;;;19.73;54.90;96010.16;4975232;28;20193;-77
2022/07/04 04:48:48;;;;;;;4.30;1.42;;;;;;;20.13;52.50;96016.44;4991338;28;20175;-76
2022/07/04 04:51:13;;;;;;;4.35;1.67;;;;;;;20.40;52.25;96022.63;4992664;28;20583;-77
2022/07/04 04:53:38;;;;;;;2.90;1.60;;;;;;;20.50;51.76;96028.41;4991423;28;20210;-78
2022/07/04 04:56:04;;;;;;;3.65;1.63;;;;;;;20.80;51.35;96028.09;4993046;28;20184;-77
2022/07/04 04:58:29;;;;;;;2.35;1.02;;;;;;;21.50;48.73;96013.56;4992623;28;20187;-79
2022/07/04 05:00:54;;;;;;;2.38;1.65;;;;;;;21.09;49.93;96027.72;4992923;28;20302;-79
2022/07/04 05:03:20;;;;;;;4.70;1.65;;;;;;;20.97;50.22;96028.53;4976116;28;20207;-77
2022/07/04 05:05:45;;;;;;;2.17;1.27;;;;;;;20.77;51.23;96028.50;4995646;28;20187;-78
2022/07/04 05:08:12;;;;;;;2.33;1.65;;;;;;;21.56;49.06;96022.50;5010573;28;20224;-78
2022/07/04 05:10:38;;;;;;;2.88;1.42;;;;;;;22.96;45.75;96024.50;5012561;28;20201;-78
2022/07/04 05:13:04;;;;;;;1.73;1.40;;;;;;;22.20;46.13;96027.09;5012131;28;20210;-78
2022/07/04 05:15:29;;;;;;;2.58;1.42;;;;;;;21.76;47.24;96034.69;4994494;28;20195;-78
2022/07/04 05:17:54;;;;;;;3.13;1.45;;;;;;;21.64;47.98;96025.72;5012104;28;20215;-77
2022/07/04 05:20:20;;;;;;;2.13;1.33;;;;;;;21.59;48.04;96027.38;5007906;28;20306;-78
2022/07/04 05:22:45;;;;;;;5.35;1.40;;;;;;;22.41;46.61;96031.28;4992103;28;20175;-78
2022/07/04 05:25:10;;;;;;;3.15;1.58;;;;;;;23.76;43.34;96023.94;4994510;28;20739;-77
2022/07/04 05:27:37;;;;;;;3.50;1.30;;;;;;;24.32;41.43;96023.78;5011164;28;20194;-78
2022/07/04 05:30:03;;;;;;;3.45;1.50;;;;;;;24.90;39.99;96030.41;5003816;28;20197;-77
2022/07/04 05:32:28;;;;;;;5.55;1.40;;;;;;;24.41;40.44;96016.34;5014012;28;20183;-78
2022/07/04 05:34:54;;;;;;;4.03;1.50;;;;;;;23.76;41.94;96008.03;5026473;28;20183;-79
2022/07/04 05:37:19;;;;;;;2.47;1.33;;;;;;;22.76;44.43;96011.38;5015651;28;20201;-78
2022/07/04 05:39:45;;;;;;;2.15;1.30;;;;;;;22.39;45.48;96010.34;5016747;28;20207;-79
2022/07/04 05:42:10;;;;;;;7.25;1.42;;;;;;;22.27;45.13;96007.53;5019157;28;20213;-78
2022/07/04 05:44:35;;;;;;;3.55;1.38;;;;;;;22.75;45.41;96009.75;5012208;28;20201;-79
2022/07/04 05:47:01;;;;;;;5.13;1.30;;;;;;;24.18;41.94;96012.47;5010364;28;20209;-79
2022/07/04 05:49:26;;;;;;;3.22;1.40;;;;;;;25.40;39.17;96009.66;5011675;28;20187;-79
2022/07/04 05:51:51;;;;;;;5.65;1.40;;;;;;;25.85;36.33;96015.25;5012087;28;20207;-77
2022/07/04 05:54:17;;;;;;;5.93;1.60;;;;;;;25.76;36.98;96010.53;5011436;28;20210;-78
2022/07/04 05:56:42;;;;;;;4.75;1.38;;;;;;;25.54;38.47;96010.25;5010262;28;20290;-78
2022/07/04 05:59:09;;;;;;;6.70;1.25;;;;;;;24.92;38.66;96018.53;5011521;28;20175;-77
2022/07/04 06:01:34;;;;;;;3.80;1.23;;;;;;;23.89;41.55;96011.38;5011478;28;20221;-78
2022/07/04 06:03:59;;;;;;;3.67;1.50;;;;;;;23.61;41.86;96011.03;5009995;28;20180;-78
2022/07/04 06:06:25;;;;;;;4.97;1.42;;;;;;;23.01;42.88;96000.06;5010402;28;20219;-78
2022/07/04 06:08:50;;;;;;;2.15;1.33;;;;;;;24.04;42.24;96007.56;5011285;28;20653;-77
2022/07/04 06:11:17;;;;;;;4.18;1.33;;;;;;;23.37;42.15;95999.38;5011030;28;20211;-78
2022/07/04 06:13:42;;;;;;;4.10;1.25;;;;;;;23.03;43.41;96005.94;5009118;28;20203;-77
2022/07/04 06:16:08;;;;;;;2.00;1.23;;;;;;;22.93;43.77;96005.59;5010783;28;20270;-77
2022/07/04 06:18:33;;;;;;;1.92;1.30;;;;;;;23.64;42.27;96003.44;5012489;28;20190;-77
2022/07/04 06:20:58;;;;;;;4.13;1.50;;;;;;;23.45;42.17;96007.06;5009899;28;20694;-77
2022/07/04 06:23:24;;;;;;;2.78;1.40;;;;;;;23.93;41.23;96009.88;5010991;28;20179;-77
2022/07/04 06:25:49;;;;;;;4.63;1.40;;;;;;;24.69;39.73;96002.50;4993246;28;20198;-77
2022/07/04 06:28:14;;;;;;;4.40;1.30;;;;;;;24.22;40.18;96002.25;5009952;28;20668;-77
2022/07/04 06:30:40;;;;;;;3.50;1.23;;;;;;;24.33;40.54;96008.69;5009026;28;20726;-77
2022/07/04 06:33:05;;;;;;;1.63;1.25;;;;;;;23.39;41.60;96010.56;5010827;28;20199;-78
2022/07/04 06:35:49;;;;;;;2.47;1.20;;;;;;;24.00;41.36;96015.13;5010230;28;20191;-76
2022/07/04 06:38:17;;;;;;;4.18;1.30;;;;;;;23.97;40.39;96016.38;5025903;28;20175;-77
2022/07/04 06:40:43;;;;;;;4.07;1.50;;;;;;;23.87;41.66;96013.44;5009564;28;20191;-77
2022/07/04 06:43:08;;;;;;;1.58;1.30;;;;;;;24.09;40.21;96018.28;5009601;28;20167;-77
2022/07/04 06:45:34;;;;;;;4.78;1.40;;;;;;;23.82;40.33;96013.25;5008833;28;20214;-77
2022/07/04 06:48:00;;;;;;;4.05;1.60;;;;;;;23.03;42.29;96011.22;4993172;28;20178;-77
2022/07/04 06:50:26;;;;;;;3.65;1.63;;;;;;;22.39;43.30;96014.81;5009122;28;20206;-78
2022/07/04 06:52:51;;;;;;;1.42;1.33;;;;;;;22.12;45.46;96011.44;5009464;28;20206;-77
2022/07/04 06:55:16;;;;;;;4.68;1.30;;;;;;;22.51;43.91;96019.22;5010014;28;20179;-77
2022/07/04 06:57:42;;;;;;;5.68;1.58;;;;;;;23.77;40.37;96005.19;5009474;28;20246;-77
2022/07/04 07:00:08;;;;;;;1.85;1.27;;;;;;;23.46;41.32;96009.47;5009438;28;20396;-77
2022/07/04 07:02:35;;;;;;;3.75;1.67;;;;;;;22.94;42.97;96009.88;5010846;28;20179;-77
2022/07/04 07:05:00;;;;;;;5.45;1.52;;;;;;;22.68;43.75;96016.09;5009372;28;20183;-78
2022/07/04 07:07:27;;;;;;;2.85;1.60;;;;;;;22.25;44.63;96014.84;4993771;28;20187;-78
2022/07/04 07:09:52;;;;;;;3.92;1.67;;;;;;;21.89;45.91;96011.88;5009734;28;20187;-78
2022/07/04 07:12:17;;;;;;;3.17;1.52;;;;;;;22.06;46.37;96007.75;5009241;28;20196;-78
2022/07/04 07:14:43;;;;;;;4.40;1.70;;;;;;;21.78;45.94;96013.31;5008632;28;20213;-78
2022/07/04 07:17:08;;;;;;;2.58;1.60;;;;;;;21.67;46.63;96013.97;5008960;28;20240;-77
2022/07/04 07:19:33;;;;;;;2.50;1.52;;;;;;;21.37;47.29;96008.25;5009144;28;20569;-77
2022/07/04 07:21:59;;;;;;;3.20;1.75;;;;;;;21.00;48.95;96002.53;5009667;28;20191;-78
2022/07/04 07:24:25;;;;;;;4.18;1.60;;;;;;;20.79;50.70;96010.63;5008811;28;20657;-76
2022/07/04 07:26:51;;;;;;;5.30;1.60;;;;;;;20.79;50.26;96000.06;5010233;28;20655;-77
2022/07/04 07:29:16;;;;;;;4.18;1.45;;;;;;;21.05;49.16;96000.13;5009155;28;20214;-77
2022/07/04 07:31:41;;;;;;;3.70;1.45;;;;;;;20.96;49.17;95996.03;5009254;28;20199;-79
2022/07/04 07:34:07;;;;;;;4.13;1.90;;;;;;;20.77;50.34;96004.75;4991866;28;20713;-77
2022/07/04 07:36:32;;;;;;;1.98;1.63;;;;;;;20.90;50.85;95992.38;4992355;28;20235;-77
2022/07/04 07:38:57;;;;;;;1.85;1.60;;;;;;;20.82;51.71;95999.66;5009496;28;20185;-77
2022/07/04 07:41:23;;;;;;;3.13;1.50;;;;;;;21.02;50.28;95997.84;4992718;28;20203;-77
2022/07/04 07:43:48;;;;;;;3.67;2.05;;;;;;;21.06;50.37;95999.09;5012402;28;20666;-78
2022/07/04 07:46:13;;;;;;;2.13;1.85;;;;;;;20.93;50.61;95997.25;4996616;28;20217;-77
2022/07/04 07:48:38;;;;;;;2.95;1.92;;;;;;;20.39;53.05;95997.28;4992857;28;20191;-77
2022/07/04 07:51:04;;;;;;;3.30;1.80;;;;;;;20.76;53.03;96000.44;4994296;28;20203;-77
2022/07/04 07:53:29;;;;;;;4.72;2.28;;;;;;;20.87;52.69;96005.16;5008537;28;20309;-78
2022/07/04 07:55:54;;;;;;;3.78;1.50;;;;;;;21.28;50.57;96009.50;5012323;28;20610;-77
2022/07/04 07:58:20;;;;;;;3.90;2.38;;;;;;;21.20;49.92;95995.47;5012353;28;20663;-77
2022/07/04 08:00:46;;;;;;;4.15;1.90;;;;;;;21.78;48.81;96006.19;5014152;28;20215;-78
2022/07/04 08:05:55;;;;;;;3.88;1.80;;;;;;;22.25;47.21;96006.09;5012535;28;20189;-78
2022/07/04 08:08:23;;;;;;;3.80;1.67;;;;;;;22.52;48.01;96004.16;5012505;28;20175;-77
2022/07/04 08:10:48;;;;;;;3.45;1.90;;;;;;;22.67;47.32;96002.06;5012366;28;20207;-78
2022/07/04 08:13:13;;;;;;;3.08;1.90;;;;;;;22.25;47.34;95995.53;4996521;28;20577;-76
2022/07/04 08:15:39;;;;;;;3.90;2.00;;;;;;;22.06;47.85;95992.72;5011368;28;20433;-79
2022/07/04 08:18:04;;;;;;;6.82;2.33;;;;;;;22.34;48.58;95987.13;4995856;28;20183;-77
2022/07/04 08:20:29;;;;;;;3.25;1.73;;;;;;;22.09;49.19;95986.25;5014134;28;20671;-77
2022/07/04 08:22:55;;;;;;;2.58;2.03;;;;;;;22.13;48.10;95987.44;4996570;28;20253;-79
2022/07/04 08:25:21;;;;;;;6.68;1.75;;;;;;;22.16;49.00;95983.56;5012661;28;21005;-78
2022/07/04 08:27:46;;;;;;;4.25;1.98;;;;;;;22.17;48.61;95990.47;5012168;28;20262;-77
2022/07/04 08:30:11;;;;;;;6.45;2.08;;;;;;;22.36;48.67;95979.00;5011778;28;20227;-78
2022/07/04 08:32:37;;;;;;;3.28;2.03;;;;;;;22.37;48.92;95988.56;5012178;28;20253;-78
2022/07/04 08:35:06;;;;;;;4.38;2.17;;;;;;;22.18;49.25;95978.88;5010941;28;20175;-78
2022/07/04 08:37:31;;;;;;;3.38;1.60;;;;;;;22.30;48.62;95979.84;5011858;28;20191;-78
2022/07/04 08:39:56;;;;;;;8.23;2.17;;;;;;;22.10;48.74;95979.94;5011564;28;20671;-77
2022/07/04 08:42:22;;;;;;;3.88;1.80;;;;;;;22.97;46.65;95981.13;4995799;28;20190;-78
2022/07/04 08:44:49;;;;;;;12.43;2.53;;;;;;;22.71;47.21;95973.34;5011563;28;20210;-77
2022/07/04 08:47:20;;;;;;;3.78;2.20;;;;;;;23.10;45.82;95974.91;5012094;28;20183;-78
2022/07/04 08:50:05;;;;;;;5.72;1.80;;;;;;;23.23;45.31;95969.50;4979717;28;20222;-78
2022/07/04 08:52:42;;;;;;;2.15;1.98;;;;;;;23.12;46.29;95972.88;5011719;28;20186;-78
2022/07/04 09:00:38;;;;;;;3.10;2.15;;;;;;;23.57;46.84;95965.53;5011648;28;20241;-77
2022/07/04 09:03:04;;;;;;;5.15;1.85;;;;;;;23.53;46.16;95972.31;4991200;28;20573;-78
2022/07/04 09:05:32;;;;;;;4.35;1.92;;;;;;;23.53;45.77;95971.50;5004429;28;20237;-76
2022/07/04 09:07:57;;;;;;;5.35;2.00;;;;;;;23.80;47.56;95978.22;5007689;28;20578;-77
2022/07/04 09:10:22;;;;;;;5.93;2.08;;;;;;;23.61;45.70;95976.56;4980432;28;20225;-77
2022/07/04 09:12:48;;;;;;;4.57;2.03;;;;;;;23.51;46.64;95978.88;4994934;28;20598;-77
2022/07/04 09:15:15;;;;;;;4.82;1.88;;;;;;;23.98;46.40;95986.19;4990867;28;21436;-77
2022/07/04 09:17:40;;;;;;;6.43;1.83;;;;;;;24.39;43.69;95987.38;5011069;28;20171;-77
2022/07/04 09:20:13;;;;;;;2.97;1.80;;;;;;;24.53;44.69;95988.81;5010441;28;20207;-77
2022/07/04 09:22:38;;;;;;;4.22;1.75;;;;;;;24.49;45.13;95989.50;4992540;28;20259;-77
2022/07/04 09:25:05;;;;;;;3.33;1.75;;;;;;;24.46;42.26;95996.03;5007398;28;20274;-78
2022/07/04 09:27:36;;;;;;;4.18;1.92;;;;;;;24.65;42.00;95991.53;4994771;28;20243;-78
2022/07/04 09:30:04;;;;;;;3.90;1.90;;;;;;;24.16;41.04;95990.66;4991745;28;20290;-78
2022/07/04 09:32:40;;;;;;;4.90;1.95;;;;;;;24.74;39.56;95994.69;5011178;28;20233;-78
2022/07/04 09:35:16;;;;;;;4.13;1.60;;;;;;;24.41;42.30;95995.91;5011060;28;20274;-78
2022/07/04 09:37:47;;;;;;;1.75;1.50;;;;;;;24.60;40.07;95996.69;5011208;28;20680;-77
2022/07/04 09:40:26;;;;;;;3.55;1.52;;;;;;;24.23;41.64;95998.56;4994259;28;20222;-79
2022/07/04 09:42:52;;;;;;;2.17;1.30;;;;;;;24.53;39.76;95998.63;4991204;28;20268;-78
2022/07/04 09:45:17;;;;;;;3.38;1.60;;;;;;;24.94;39.12;96000.53;4991075;28;20273;-79
2022/07/04 09:47:44;;;;;;;1.75;1.30;;;;;;;25.16;38.57;96008.78;5006012;28;20178;-78
2022/07/04 09:50:13;;;;;;;4.10;1.17;;;;;;;24.64;37.10;96008.47;5011414;28;20270;-78
2022/07/04 09:52:55;;;;;;;5.45;1.48;;;;;;;23.86;38.87;96006.50;4994428;28;20209;-78
2022/07/04 09:55:34;;;;;;;2.47;1.38;;;;;;;23.98;39.50;96010.03;5010731;28;20175;-78
2022/07/04 09:58:03;;;;;;;4.32;1.52;;;;;;;23.94;39.64;96006.22;5011571;28;20178;-78
2022/07/04 10:00:29;;;;;;;3.65;1.60;;;;;;;24.38;39.33;96011.47;4995766;28;20268;-79
2022/07/04 10:02:55;;;;;;;2.40;1.30;;;;;;;24.43;41.02;96011.63;5027996;28;20654;-79
2022/07/04 10:05:30;;;;;;;1.90;1.23;;;;;;;24.08;39.17;96011.38;4990985;28;20176;-78
2022/07/04 10:07:57;;;;;;;3.92;1.33;;;;;;;24.52;40.32;96015.59;5009101;28;20242;-78
2022/07/04 10:10:39;;;;;;;1.98;1.40;;;;;;;24.86;40.26;96014.13;4991798;28;20203;-78
2022/07/04 10:13:07;;;;;;;6.53;1.52;;;;;;;25.14;39.52;96018.84;5010443;28;20249;-79
2022/07/04 10:15:33;;;;;;;3.53;1.58;;;;;;;24.92;40.82;96018.53;5009784;28;20190;-78
2022/07/04 10:17:59;;;;;;;4.63;1.58;;;;;;;24.96;40.07;96017.03;4991139;28;20188;-78
2022/07/04 10:20:25;;;;;;;3.20;1.50;;;;;;;25.41;38.85;96017.41;5000106;28;20275;-77
2022/07/04 10:22:50;;;;;;;3.90;1.50;;;;;;;24.83;40.00;96015.38;5010609;28;20190;-77
2022/07/04 10:25:15;;;;;;;5.28;2.20;;;;;;;25.13;40.43;96018.03;5009838;28;20983;-77
2022/07/04 10:27:41;;;;;;;2.38;1.40;;;;;;;25.45;39.11;96016.97;5010681;28;20174;-77
2022/07/04 10:30:10;;;;;;;3.28;1.45;;;;;;;24.94;38.58;96016.47;5010888;28;20202;-77
2022/07/04 10:32:36;;;;;;;2.28;1.48;;;;;;;25.60;37.63;96006.66;5010391;28;20182;-77
2022/07/04 10:35:02;;;;;;;2.15;1.20;;;;;;;25.63;37.86;96011.53;4993830;28;20583;-77
2022/07/04 10:38:02;;;;;;;2.75;1.58;;;;;;;25.41;41.05;96003.31;5010282;28;20191;-77
2022/07/04 10:40:52;;;;;;;1.92;1.45;;;;;;;25.62;40.26;96008.06;5011628;28;20294;-78
2022/07/04 10:43:42;;;;;;;2.40;1.33;;;;;;;25.45;41.44;96007.13;4992398;28;20175;-78
2022/07/04 10:46:17;;;;;;;4.95;1.30;;;;;;;25.96;39.59;96011.78;4992538;28;20183;-78
2022/07/04 10:49:00;;;;;;;3.38;1.70;;;;;;;25.83;38.33;96013.88;5012527;28;20174;-77
2022/07/04 10:51:42;;;;;;;1.92;1.70;;;;;;;24.57;40.51;96013.88;5012095;28;20563;-78
2022/07/04 10:54:08;;;;;;;2.75;1.65;;;;;;;24.66;40.24;96014.41;5011183;28;20264;-78
2022/07/04 10:56:36;;;;;;;4.57;1.75;;;;;;;24.92;40.74;96013.22;4995096;28;20183;-78
2022/07/04 10:59:11;;;;;;;4.03;1.38;;;;;;;24.48;40.21;96001.97;5011536;28;20209;-77
2022/07/04 11:01:36;;;;;;;2.78;1.40;;;;;;;24.63;40.50;96000.75;4992160;28;20572;-77
2022/07/04 11:04:02;;;;;;;5.25;1.70;;;;;;;24.56;40.59;95987.56;5007558;28;20571;-77
2022/07/04 11:06:52;;;;;;;2.13;1.45;;;;;;;24.56;41.00;95996.34;4992015;28;20180;-78
2022/07/04 11:09:22;;;;;;;2.40;1.40;;;;;;;24.16;42.64;95981.91;5008604;28;20194;-78
2022/07/04 11:11:59;;;;;;;3.63;1.67;;;;;;;24.71;41.13;95984.50;5011945;28;20775;-78
2022/07/04 11:14:35;;;;;;;2.30;1.50;;;;;;;24.21;41.83;95980.22;5011244;28;20190;-78
2022/07/04 11:17:01;;;;;;;2.25;1.40;;;;;;;24.69;40.73;95982.06;4995480;28;20179;-78
2022/07/04 11:19:27;;;;;;;2.67;1.50;;;;;;;24.60;42.30;95982.59;5015234;28;20195;-78
2022/07/04 11:21:56;;;;;;;3.08;1.40;;;;;;;25.00;42.31;95978.38;4998790;28;20206;-78
2022/07/04 11:24:22;;;;;;;2.28;1.70;;;;;;;25.22;41.94;95980.50;5013953;28;20221;-78
2022/07/04 11:26:48;;;;;;;2.45;1.35;;;;;;;25.73;40.21;95976.41;4998905;28;20202;-78
2022/07/04 11:29:14;;;;;;;3.75;1.55;;;;;;;25.70;41.38;95978.47;4998544;28;20651;-78
2022/07/04 11:31:41;;;;;;;3.42;1.60;;;;;;;25.99;39.80;95973.28;5015480;28;20282;-78
2022/07/04 11:34:07;;;;;;;4.28;1.70;;;;;;;25.94;40.70;95973.94;4998166;28;20291;-78
2022/07/04 11:36:32;;;;;;;3.33;1.85;;;;;;;25.79;39.37;95970.94;5015381;28;20210;-78
2022/07/04 11:39:00;;;;;;;3.40;1.70;;;;;;;26.29;39.49;95961.63;5014815;28;20659;-78
2022/07/04 11:47:10;;;;;;;2.58;1.50;;;;;;;26.78;38.04;95966.34;5015390;28;20654;-78
2022/07/04 11:49:40;;;;;;;3.05;1.30;;;;;;;27.00;36.40;95961.09;4998248;28;20186;-78
2022/07/04 11:52:06;;;;;;;3.58;1.60;;;;;;;26.68;38.28;95958.16;5015053;28;20607;-77